sensor_id;sensor_type;location;lat;lon;timestamp;pressure;altitude;pressure_sealevel;temperature;humidity
12219;BME280;6172;42.646;23.344;2023-02-07T00:04:09;95892.09;;;-5.14;100.00
12219;BME280;6172;42.646;23.344;2023-02-07T00:06:54;95895.75;;;-5.10;100.00
12219;BME280;6172;42.646;23.344;2023-02-07T00:09:25;95891.81;;;-5.12;100.00
12219;BME280;6172;42.646;23.344;2023-02-07T00:12:08;95901.06;;;-5.10;100.00
12219;BME280;6172;42.646;23.344;2023-02-07T00:17:46;95910.25;;;-5.21;100.00
12219;BME280;6172;42.646;23.344;2023-02-07T00:20:25;95915.09;;;-5.04;100.00
12219;BME280;6172;42.646;23.344;2023-02-07T00:22:57;95923.44;;;-5.11;100.00
12219;BME280;6172;42.646;23.344;2023-02-07T00:25:33;95917.34;;;-5.16;100.00
12219;BME280;6172;42.646;23.344;2023-02-07T00:28:18;95924.34;;;-5.02;100.00
12219;BME280;6172;42.646;23.344;2023-02-07T00:31:08;95917.97;;;-5.01;100.00
12219;BME280;6172;42.646;23.344;2023-02-07T00:34:02;95920.91;;;-5.21;100.00
12219;BME280;6172;42.646;23.344;2023-02-07T00:36:36;95921.22;;;-5.27;100.00
12219;BME280;6172;42.646;23.344;2023-02-07T00:39:15;95924.91;;;-5.05;100.00
12219;BME280;6172;42.646;23.344;2023-02-07T00:41:52;95921.63;;;-5.15;100.00
12219;BME280;6172;42.646;23.344;2023-02-07T00:44:27;95931.56;;;-5.26;100.00
12219;BME280;6172;42.646;23.344;2023-02-07T00:47:02;95925.56;;;-5.13;100.00
12219;BME280;6172;42.646;23.344;2023-02-07T00:53:14;95933.16;;;-5.06;100.00
12219;BME280;6172;42.646;23.344;2023-02-07T00:55:56;95924.41;;;-5.25;100.00
12219;BME280;6172;42.646;23.344;2023-02-07T00:58:37;95924.31;;;-5.20;100.00
12219;BME280;6172;42.646;23.344;2023-02-07T01:01:17;95923.06;;;-5.28;100.00
12219;BME280;6172;42.646;23.344;2023-02-07T01:03:47;95926.09;;;-5.34;100.00
12219;BME280;6172;42.646;23.344;2023-02-07T01:06:25;95920.25;;;-5.36;100.00
12219;BME280;6172;42.646;23.344;2023-02-07T01:09:07;95920.91;;;-5.44;100.00
12219;BME280;6172;42.646;23.344;2023-02-07T01:11:50;95921.56;;;-5.57;100.00
12219;BME280;6172;42.646;23.344;2023-02-07T01:14:36;95917.91;;;-5.61;100.00
12219;BME280;6172;42.646;23.344;2023-02-07T01:17:36;95911.78;;;-5.62;100.00
12219;BME280;6172;42.646;23.344;2023-02-07T01:20:31;95915.44;;;-5.58;100.00
12219;BME280;6172;42.646;23.344;2023-02-07T01:23:03;95912.91;;;-5.68;100.00
12219;BME280;6172;42.646;23.344;2023-02-07T01:25:31;95917.81;;;-5.56;100.00
12219;BME280;6172;42.646;23.344;2023-02-07T01:28:00;95924.91;;;-5.47;100.00
12219;BME280;6172;42.646;23.344;2023-02-07T01:30:38;95920.38;;;-5.46;100.00
12219;BME280;6172;42.646;23.344;2023-02-07T01:33:21;95917.50;;;-5.50;100.00
12219;BME280;6172;42.646;23.344;2023-02-07T01:36:05;95919.25;;;-5.40;100.00
12219;BME280;6172;42.646;23.344;2023-02-07T01:38:45;95914.25;;;-5.23;100.00
12219;BME280;6172;42.646;23.344;2023-02-07T01:41:19;95903.63;;;-5.23;100.00
12219;BME280;6172;42.646;23.344;2023-02-07T01:50:13;95889.72;;;-5.15;100.00
12219;BME280;6172;42.646;23.344;2023-02-07T01:52:47;95892.28;;;-5.29;100.00
12219;BME280;6172;42.646;23.344;2023-02-07T01:55:24;95893.66;;;-5.31;100.00
12219;BME280;6172;42.646;23.344;2023-02-07T01:57:55;95901.56;;;-5.50;100.00
12219;BME280;6172;42.646;23.344;2023-02-07T02:00:36;95894.31;;;-5.21;100.00
12219;BME280;6172;42.646;23.344;2023-02-07T02:03:40;95897.75;;;-5.20;100.00
12219;BME280;6172;42.646;23.344;2023-02-07T02:06:41;95900.97;;;-5.23;100.00
12219;BME280;6172;42.646;23.344;2023-02-07T02:09:18;95903.53;;;-5.37;100.00
12219;BME280;6172;42.646;23.344;2023-02-07T02:12:15;95901.66;;;-5.36;100.00
12219;BME280;6172;42.646;23.344;2023-02-07T02:15:12;95894.84;;;-5.42;100.00
12219;BME280;6172;42.646;23.344;2023-02-07T02:17:55;95895.41;;;-5.45;100.00
12219;BME280;6172;42.646;23.344;2023-02-07T02:24:02;95900.88;;;-5.37;100.00
12219;BME280;6172;42.646;23.344;2023-02-07T02:26:57;95903.03;;;-5.39;100.00
12219;BME280;6172;42.646;23.344;2023-02-07T02:36:01;95913.56;;;-5.52;100.00
12219;BME280;6172;42.646;23.344;2023-02-07T02:38:47;95903.59;;;-5.42;100.00
12219;BME280;6172;42.646;23.344;2023-02-07T02:41:40;95905.63;;;-5.57;100.00
12219;BME280;6172;42.646;23.344;2023-02-07T02:44:36;95905.13;;;-5.59;100.00
12219;BME280;6172;42.646;23.344;2023-02-07T02:47:09;95913.25;;;-5.51;100.00
12219;BME280;6172;42.646;23.344;2023-02-07T02:50:00;95912.84;;;-5.39;100.00
12219;BME280;6172;42.646;23.344;2023-02-07T02:52:32;95919.16;;;-5.54;100.00
12219;BME280;6172;42.646;23.344;2023-02-07T02:55:08;95921.78;;;-5.30;100.00
12219;BME280;6172;42.646;23.344;2023-02-07T02:57:55;95926.88;;;-5.34;100.00
12219;BME280;6172;42.646;23.344;2023-02-07T03:00:51;95919.53;;;-5.42;100.00
12219;BME280;6172;42.646;23.344;2023-02-07T03:07:04;95927.78;;;-5.43;100.00
12219;BME280;6172;42.646;23.344;2023-02-07T03:09:53;95930.50;;;-5.48;100.00
12219;BME280;6172;42.646;23.344;2023-02-07T03:12:57;95924.41;;;-5.49;100.00
12219;BME280;6172;42.646;23.344;2023-02-07T03:15:57;95932.41;;;-5.30;100.00
12219;BME280;6172;42.646;23.344;2023-02-07T03:19:00;95925.53;;;-5.31;100.00
12219;BME280;6172;42.646;23.344;2023-02-07T03:21:40;95940.44;;;-5.59;100.00
12219;BME280;6172;42.646;23.344;2023-02-07T03:24:39;95927.16;;;-5.59;100.00
12219;BME280;6172;42.646;23.344;2023-02-07T03:27:36;95924.97;;;-5.75;100.00
12219;BME280;6172;42.646;23.344;2023-02-07T03:30:11;95922.34;;;-5.80;100.00
12219;BME280;6172;42.646;23.344;2023-02-07T03:32:47;95931.03;;;-5.75;100.00
12219;BME280;6172;42.646;23.344;2023-02-07T03:35:56;95934.66;;;-5.66;100.00
12219;BME280;6172;42.646;23.344;2023-02-07T03:38:31;95937.06;;;-5.64;100.00
12219;BME280;6172;42.646;23.344;2023-02-07T03:44:39;95933.94;;;-5.71;100.00
12219;BME280;6172;42.646;23.344;2023-02-07T03:47:53;95933.22;;;-5.77;100.00
12219;BME280;6172;42.646;23.344;2023-02-07T03:50:38;95928.50;;;-5.85;100.00
12219;BME280;6172;42.646;23.344;2023-02-07T03:53:09;95929.19;;;-5.74;100.00
12219;BME280;6172;42.646;23.344;2023-02-07T03:55:48;95924.44;;;-5.77;100.00
12219;BME280;6172;42.646;23.344;2023-02-07T03:58:24;95929.19;;;-5.74;100.00
12219;BME280;6172;42.646;23.344;2023-02-07T04:01:02;95936.50;;;-5.90;100.00
12219;BME280;6172;42.646;23.344;2023-02-07T04:03:36;95928.03;;;-5.92;100.00
12219;BME280;6172;42.646;23.344;2023-02-07T04:06:10;95921.91;;;-5.92;100.00
12219;BME280;6172;42.646;23.344;2023-02-07T04:08:45;95937.25;;;-5.84;100.00
12219;BME280;6172;42.646;23.344;2023-02-07T04:11:17;95938.50;;;-5.77;100.00
12219;BME280;6172;42.646;23.344;2023-02-07T04:13:45;95932.91;;;-5.75;100.00
12219;BME280;6172;42.646;23.344;2023-02-07T04:16:15;95935.69;;;-5.62;100.00
12219;BME280;6172;42.646;23.344;2023-02-07T04:18:52;95923.31;;;-5.71;100.00
12219;BME280;6172;42.646;23.344;2023-02-07T04:21:19;95919.53;;;-5.65;100.00
12219;BME280;6172;42.646;23.344;2023-02-07T04:23:58;95915.47;;;-5.34;100.00
12219;BME280;6172;42.646;23.344;2023-02-07T04:26:29;95921.53;;;-5.52;100.00
12219;BME280;6172;42.646;23.344;2023-02-07T04:29:03;95923.59;;;-5.49;100.00
12219;BME280;6172;42.646;23.344;2023-02-07T04:31:45;95929.50;;;-5.52;100.00
12219;BME280;6172;42.646;23.344;2023-02-07T04:34:24;95925.81;;;-5.56;100.00
12219;BME280;6172;42.646;23.344;2023-02-07T04:37:17;95927.00;;;-5.67;100.00
12219;BME280;6172;42.646;23.344;2023-02-07T04:39:55;95933.69;;;-5.75;100.00
12219;BME280;6172;42.646;23.344;2023-02-07T04:42:44;95930.72;;;-5.68;100.00
12219;BME280;6172;42.646;23.344;2023-02-07T04:45:23;95932.69;;;-5.79;100.00
12219;BME280;6172;42.646;23.344;2023-02-07T04:48:01;95934.59;;;-5.84;100.00
12219;BME280;6172;42.646;23.344;2023-02-07T04:50:34;95942.19;;;-5.73;100.00
12219;BME280;6172;42.646;23.344;2023-02-07T04:53:08;95941.94;;;-5.76;100.00
12219;BME280;6172;42.646;23.344;2023-02-07T04:56:09;95944.09;;;-5.78;100.00
12219;BME280;6172;42.646;23.344;2023-02-07T05:01:52;95950.91;;;-5.72;100.00
12219;BME280;6172;42.646;23.344;2023-02-07T05:04:35;95948.13;;;-5.57;100.00
12219;BME280;6172;42.646;23.344;2023-02-07T05:07:24;95955.84;;;-5.61;100.00
12219;BME280;6172;42.646;23.344;2023-02-07T05:10:08;95950.91;;;-5.72;100.00
12219;BME280;6172;42.646;23.344;2023-02-07T05:12:37;95969.50;;;-5.72;100.00
12219;BME280;6172;42.646;23.344;2023-02-07T05:15:14;95974.53;;;-5.71;100.00
12219;BME280;6172;42.646;23.344;2023-02-07T05:18:04;95960.44;;;-5.66;100.00
12219;BME280;6172;42.646;23.344;2023-02-07T05:20:55;95970.13;;;-5.80;100.00
12219;BME280;6172;42.646;23.344;2023-02-07T05:23:49;95973.81;;;-5.76;100.00
12219;BME280;6172;42.646;23.344;2023-02-07T05:26:40;95974.03;;;-5.73;100.00
12219;BME280;6172;42.646;23.344;2023-02-07T05:29:12;95962.59;;;-5.68;100.00
12219;BME280;6172;42.646;23.344;2023-02-07T05:31:53;95966.28;;;-5.69;100.00
12219;BME280;6172;42.646;23.344;2023-02-07T05:34:44;95988.09;;;-5.72;100.00
12219;BME280;6172;42.646;23.344;2023-02-07T05:37:15;95977.38;;;-5.62;100.00
12219;BME280;6172;42.646;23.344;2023-02-07T05:39:49;95983.50;;;-5.62;100.00
12219;BME280;6172;42.646;23.344;2023-02-07T05:42:25;95981.19;;;-5.68;100.00
12219;BME280;6172;42.646;23.344;2023-02-07T05:45:11;95975.25;;;-5.60;100.00
12219;BME280;6172;42.646;23.344;2023-02-07T05:47:44;95978.25;;;-5.67;100.00
12219;BME280;6172;42.646;23.344;2023-02-07T05:50:16;95992.63;;;-5.73;100.00
12219;BME280;6172;42.646;23.344;2023-02-07T05:53:12;95987.63;;;-5.79;100.00
12219;BME280;6172;42.646;23.344;2023-02-07T05:55:59;96002.69;;;-5.70;100.00
12219;BME280;6172;42.646;23.344;2023-02-07T05:58:35;96007.66;;;-5.63;100.00
12219;BME280;6172;42.646;23.344;2023-02-07T06:01:03;96002.13;;;-5.67;100.00
12219;BME280;6172;42.646;23.344;2023-02-07T06:04:08;96001.53;;;-5.59;100.00
12219;BME280;6172;42.646;23.344;2023-02-07T06:06:48;96001.25;;;-5.57;100.00
12219;BME280;6172;42.646;23.344;2023-02-07T06:09:25;95997.09;;;-5.68;100.00
12219;BME280;6172;42.646;23.344;2023-02-07T06:12:21;95998.13;;;-5.64;100.00
12219;BME280;6172;42.646;23.344;2023-02-07T06:14:55;96001.59;;;-5.64;100.00
12219;BME280;6172;42.646;23.344;2023-02-07T06:17:23;96008.97;;;-5.61;100.00
12219;BME280;6172;42.646;23.344;2023-02-07T06:19:58;96012.94;;;-5.58;100.00
12219;BME280;6172;42.646;23.344;2023-02-07T06:22:26;96009.22;;;-5.57;100.00
12219;BME280;6172;42.646;23.344;2023-02-07T06:24:56;96012.66;;;-5.57;100.00
12219;BME280;6172;42.646;23.344;2023-02-07T06:27:27;96006.56;;;-5.57;100.00
12219;BME280;6172;42.646;23.344;2023-02-07T06:30:22;96017.16;;;-5.52;100.00
12219;BME280;6172;42.646;23.344;2023-02-07T06:32:58;96014.03;;;-5.36;100.00
12219;BME280;6172;42.646;23.344;2023-02-07T06:35:38;96016.31;;;-5.24;100.00
12219;BME280;6172;42.646;23.344;2023-02-07T06:38:35;96020.53;;;-5.23;100.00
12219;BME280;6172;42.646;23.344;2023-02-07T06:41:35;96004.69;;;-5.28;100.00
12219;BME280;6172;42.646;23.344;2023-02-07T06:44:08;96019.84;;;-5.05;100.00
12219;BME280;6172;42.646;23.344;2023-02-07T06:46:43;96022.94;;;-5.22;100.00
12219;BME280;6172;42.646;23.344;2023-02-07T06:49:14;96022.75;;;-5.30;100.00
12219;BME280;6172;42.646;23.344;2023-02-07T06:51:58;96025.69;;;-5.32;100.00
12219;BME280;6172;42.646;23.344;2023-02-07T06:54:58;96028.13;;;-5.35;100.00
12219;BME280;6172;42.646;23.344;2023-02-07T06:57:33;96026.34;;;-5.45;100.00
12219;BME280;6172;42.646;23.344;2023-02-07T07:00:13;96044.56;;;-5.33;100.00
12219;BME280;6172;42.646;23.344;2023-02-07T07:02:48;96041.91;;;-5.33;100.00
12219;BME280;6172;42.646;23.344;2023-02-07T07:05:28;96021.88;;;-5.21;100.00
12219;BME280;6172;42.646;23.344;2023-02-07T07:08:10;96028.84;;;-5.06;100.00
12219;BME280;6172;42.646;23.344;2023-02-07T07:10:46;96021.84;;;-4.97;100.00
12219;BME280;6172;42.646;23.344;2023-02-07T07:13:23;96033.13;;;-5.05;100.00
12219;BME280;6172;42.646;23.344;2023-02-07T07:15:54;96034.97;;;-5.06;100.00
12219;BME280;6172;42.646;23.344;2023-02-07T07:18:25;96025.91;;;-5.05;100.00
12219;BME280;6172;42.646;23.344;2023-02-07T07:21:05;96037.03;;;-4.98;100.00
12219;BME280;6172;42.646;23.344;2023-02-07T07:23:45;96034.41;;;-5.03;100.00
12219;BME280;6172;42.646;23.344;2023-02-07T07:29:58;96023.53;;;-4.59;100.00
12219;BME280;6172;42.646;23.344;2023-02-07T07:32:37;96020.63;;;-4.63;100.00
12219;BME280;6172;42.646;23.344;2023-02-07T07:35:08;96030.53;;;-4.45;100.00
12219;BME280;6172;42.646;23.344;2023-02-07T07:37:38;96025.81;;;-4.53;100.00
12219;BME280;6172;42.646;23.344;2023-02-07T07:40:09;96031.16;;;-4.34;100.00
12219;BME280;6172;42.646;23.344;2023-02-07T07:42:39;96016.78;;;-4.33;100.00
12219;BME280;6172;42.646;23.344;2023-02-07T07:45:11;96004.81;;;-4.17;100.00
12219;BME280;6172;42.646;23.344;2023-02-07T07:47:38;96018.44;;;-4.00;99.78
12219;BME280;6172;42.646;23.344;2023-02-07T07:50:06;96020.34;;;-3.68;98.13
12219;BME280;6172;42.646;23.344;2023-02-07T07:52:34;96006.13;;;-3.64;95.21
12219;BME280;6172;42.646;23.344;2023-02-07T07:55:03;96023.00;;;-3.68;96.00
12219;BME280;6172;42.646;23.344;2023-02-07T07:57:30;96015.72;;;-3.49;93.95
12219;BME280;6172;42.646;23.344;2023-02-07T07:59:58;96005.47;;;-3.56;91.85
12219;BME280;6172;42.646;23.344;2023-02-07T08:02:27;96013.00;;;-3.44;90.82
12219;BME280;6172;42.646;23.344;2023-02-07T08:04:55;96016.00;;;-3.19;88.84
12219;BME280;6172;42.646;23.344;2023-02-07T08:07:22;96024.00;;;-2.51;87.11
12219;BME280;6172;42.646;23.344;2023-02-07T08:09:49;96005.66;;;-1.95;81.64
12219;BME280;6172;42.646;23.344;2023-02-07T08:12:17;96016.47;;;-1.78;74.59
12219;BME280;6172;42.646;23.344;2023-02-07T08:14:44;96020.56;;;-1.81;71.55
12219;BME280;6172;42.646;23.344;2023-02-07T08:17:13;96017.66;;;-1.18;70.41
12219;BME280;6172;42.646;23.344;2023-02-07T08:19:42;96002.53;;;-0.83;66.46
12219;BME280;6172;42.646;23.344;2023-02-07T08:22:10;96003.94;;;-0.86;64.83
12219;BME280;6172;42.646;23.344;2023-02-07T08:24:39;95997.47;;;-0.37;64.77
12219;BME280;6172;42.646;23.344;2023-02-07T08:27:06;95994.50;;;-0.10;61.58
12219;BME280;6172;42.646;23.344;2023-02-07T08:29:34;95996.56;;;0.10;60.77
12219;BME280;6172;42.646;23.344;2023-02-07T08:32:02;95991.66;;;0.46;59.96
12219;BME280;6172;42.646;23.344;2023-02-07T08:34:30;95989.38;;;0.82;57.46
12219;BME280;6172;42.646;23.344;2023-02-07T08:37:05;95999.41;;;1.02;56.89
12219;BME280;6172;42.646;23.344;2023-02-07T08:39:33;95995.28;;;0.58;55.63
12219;BME280;6172;42.646;23.344;2023-02-07T08:42:02;95995.44;;;0.45;54.50
12219;BME280;6172;42.646;23.344;2023-02-07T08:44:32;96004.28;;;0.03;54.82
12219;BME280;6172;42.646;23.344;2023-02-07T08:47:00;95989.00;;;0.12;54.09
12219;BME280;6172;42.646;23.344;2023-02-07T08:49:27;95994.69;;;0.99;52.73
12219;BME280;6172;42.646;23.344;2023-02-07T08:52:05;95999.56;;;1.43;51.00
12219;BME280;6172;42.646;23.344;2023-02-07T08:54:43;95987.41;;;1.08;50.79
12219;BME280;6172;42.646;23.344;2023-02-07T08:57:12;95992.69;;;1.25;50.09
12219;BME280;6172;42.646;23.344;2023-02-07T08:59:40;96008.38;;;1.06;50.67
12219;BME280;6172;42.646;23.344;2023-02-07T09:02:09;96006.78;;;1.14;49.88
12219;BME280;6172;42.646;23.344;2023-02-07T09:04:36;95991.53;;;0.34;50.69
12219;BME280;6172;42.646;23.344;2023-02-07T09:07:07;95988.53;;;-0.07;52.19
12219;BME280;6172;42.646;23.344;2023-02-07T09:09:34;96012.50;;;-0.02;53.13
12219;BME280;6172;42.646;23.344;2023-02-07T09:12:01;96007.13;;;-0.02;53.00
12219;BME280;6172;42.646;23.344;2023-02-07T09:14:28;96012.91;;;-0.34;53.01
12219;BME280;6172;42.646;23.344;2023-02-07T09:16:55;96010.13;;;-0.21;52.88
12219;BME280;6172;42.646;23.344;2023-02-07T09:19:22;96002.38;;;-0.22;52.23
12219;BME280;6172;42.646;23.344;2023-02-07T09:21:52;96001.47;;;0.25;52.96
12219;BME280;6172;42.646;23.344;2023-02-07T09:24:21;96014.22;;;0.36;52.46
12219;BME280;6172;42.646;23.344;2023-02-07T09:26:56;95995.50;;;0.91;51.84
12219;BME280;6172;42.646;23.344;2023-02-07T09:29:23;96009.50;;;1.05;51.01
12219;BME280;6172;42.646;23.344;2023-02-07T09:31:51;96008.34;;;0.60;50.69
12219;BME280;6172;42.646;23.344;2023-02-07T09:34:19;96005.38;;;-0.15;52.05
12219;BME280;6172;42.646;23.344;2023-02-07T09:36:51;96021.84;;;-0.56;54.00
12219;BME280;6172;42.646;23.344;2023-02-07T09:39:21;96010.25;;;-0.82;54.35
12219;BME280;6172;42.646;23.344;2023-02-07T09:41:57;96022.91;;;-1.35;56.24
12219;BME280;6172;42.646;23.344;2023-02-07T09:44:40;95993.75;;;-0.84;57.01
12219;BME280;6172;42.646;23.344;2023-02-07T09:47:14;95995.34;;;-0.74;56.57
12219;BME280;6172;42.646;23.344;2023-02-07T09:49:44;96009.47;;;-0.82;57.68
12219;BME280;6172;42.646;23.344;2023-02-07T09:52:15;95997.22;;;-0.66;57.29
12219;BME280;6172;42.646;23.344;2023-02-07T09:54:50;95995.47;;;-1.18;58.95
12219;BME280;6172;42.646;23.344;2023-02-07T09:57:20;95983.44;;;-0.99;59.91
12219;BME280;6172;42.646;23.344;2023-02-07T09:59:52;95980.03;;;-1.21;60.65
12219;BME280;6172;42.646;23.344;2023-02-07T10:02:23;95992.38;;;-1.03;60.11
12219;BME280;6172;42.646;23.344;2023-02-07T10:04:57;95980.16;;;-1.26;60.90
12219;BME280;6172;42.646;23.344;2023-02-07T10:07:29;95983.63;;;-2.01;61.70
12219;BME280;6172;42.646;23.344;2023-02-07T10:09:59;95987.72;;;-2.17;62.78
12219;BME280;6172;42.646;23.344;2023-02-07T10:12:43;95975.25;;;-2.08;62.16
12219;BME280;6172;42.646;23.344;2023-02-07T10:15:36;95974.16;;;-1.85;63.52
12219;BME280;6172;42.646;23.344;2023-02-07T10:18:29;95965.25;;;-1.49;62.89
12219;BME280;6172;42.646;23.344;2023-02-07T10:21:04;95961.16;;;-1.78;62.28
12219;BME280;6172;42.646;23.344;2023-02-07T10:23:47;95967.84;;;-2.11;65.42
12219;BME280;6172;42.646;23.344;2023-02-07T10:26:26;95965.69;;;-2.00;65.58
12219;BME280;6172;42.646;23.344;2023-02-07T10:32:01;95963.63;;;-2.61;70.71
12219;BME280;6172;42.646;23.344;2023-02-07T10:34:38;95957.94;;;-2.46;76.39
12219;BME280;6172;42.646;23.344;2023-02-07T10:37:18;95959.94;;;-2.65;81.88
12219;BME280;6172;42.646;23.344;2023-02-07T10:39:51;95962.97;;;-2.44;86.66
12219;BME280;6172;42.646;23.344;2023-02-07T10:42:26;95964.56;;;-2.43;86.00
12219;BME280;6172;42.646;23.344;2023-02-07T10:44:54;95968.28;;;-2.31;82.28
12219;BME280;6172;42.646;23.344;2023-02-07T10:47:22;95956.50;;;-2.65;81.00
12219;BME280;6172;42.646;23.344;2023-02-07T10:49:52;95958.47;;;-2.57;80.40
12219;BME280;6172;42.646;23.344;2023-02-07T10:52:27;95936.28;;;-2.44;80.38
12219;BME280;6172;42.646;23.344;2023-02-07T10:54:57;95948.75;;;-2.53;81.45
12219;BME280;6172;42.646;23.344;2023-02-07T10:57:27;95933.53;;;-2.39;82.33
12219;BME280;6172;42.646;23.344;2023-02-07T11:00:00;95934.88;;;-1.53;78.78
12219;BME280;6172;42.646;23.344;2023-02-07T11:02:46;95933.91;;;-0.71;72.57
12219;BME280;6172;42.646;23.344;2023-02-07T11:05:38;95925.78;;;-0.06;66.82
12219;BME280;6172;42.646;23.344;2023-02-07T11:08:18;95907.75;;;0.28;63.06
12219;BME280;6172;42.646;23.344;2023-02-07T11:10:48;95913.78;;;-0.00;60.61
12219;BME280;6172;42.646;23.344;2023-02-07T11:13:23;95907.25;;;0.52;59.45
12219;BME280;6172;42.646;23.344;2023-02-07T11:15:53;95915.81;;;0.28;57.59
12219;BME280;6172;42.646;23.344;2023-02-07T11:18:33;95909.09;;;-0.29;56.65
12219;BME280;6172;42.646;23.344;2023-02-07T11:21:04;95906.88;;;-0.35;56.51
12219;BME280;6172;42.646;23.344;2023-02-07T11:23:32;95910.69;;;-1.09;56.99
12219;BME280;6172;42.646;23.344;2023-02-07T11:26:01;95910.28;;;-0.77;55.22
12219;BME280;6172;42.646;23.344;2023-02-07T11:28:32;95906.63;;;-0.98;54.14
12219;BME280;6172;42.646;23.344;2023-02-07T11:31:02;95907.25;;;-1.01;55.47
12219;BME280;6172;42.646;23.344;2023-02-07T11:33:33;95898.75;;;-0.95;55.98
12219;BME280;6172;42.646;23.344;2023-02-07T11:36:12;95899.72;;;-0.91;55.00
12219;BME280;6172;42.646;23.344;2023-02-07T11:38:49;95899.13;;;-0.71;54.28
12219;BME280;6172;42.646;23.344;2023-02-07T11:41:19;95901.53;;;-0.44;55.32
12219;BME280;6172;42.646;23.344;2023-02-07T11:44:15;95896.78;;;-0.64;56.85
12219;BME280;6172;42.646;23.344;2023-02-07T11:46:45;95889.38;;;-0.67;56.94
12219;BME280;6172;42.646;23.344;2023-02-07T11:49:19;95875.78;;;-0.96;56.75
12219;BME280;6172;42.646;23.344;2023-02-07T11:51:51;95894.94;;;-1.11;57.18
12219;BME280;6172;42.646;23.344;2023-02-07T11:54:19;95892.25;;;-1.11;58.01
12219;BME280;6172;42.646;23.344;2023-02-07T11:57:02;95885.94;;;-1.23;57.44
12219;BME280;6172;42.646;23.344;2023-02-07T11:59:32;95897.09;;;-1.30;57.52
12219;BME280;6172;42.646;23.344;2023-02-07T12:02:08;95887.94;;;-1.37;58.02
12219;BME280;6172;42.646;23.344;2023-02-07T12:04:43;95889.31;;;-1.48;58.41
12219;BME280;6172;42.646;23.344;2023-02-07T12:07:14;95878.78;;;-1.45;59.50
12219;BME280;6172;42.646;23.344;2023-02-07T12:09:46;95879.94;;;-1.68;61.17
12219;BME280;6172;42.646;23.344;2023-02-07T12:12:18;95884.84;;;-1.61;61.17
12219;BME280;6172;42.646;23.344;2023-02-07T12:14:51;95899.34;;;-1.85;62.96
12219;BME280;6172;42.646;23.344;2023-02-07T12:17:26;95888.88;;;-2.03;61.69
12219;BME280;6172;42.646;23.344;2023-02-07T12:20:02;95868.88;;;-2.06;62.01
12219;BME280;6172;42.646;23.344;2023-02-07T12:22:36;95876.59;;;-2.04;61.78
12219;BME280;6172;42.646;23.344;2023-02-07T12:25:15;95870.09;;;-2.12;61.72
12219;BME280;6172;42.646;23.344;2023-02-07T12:27:47;95886.59;;;-2.10;61.37
12219;BME280;6172;42.646;23.344;2023-02-07T12:30:22;95883.53;;;-2.03;62.02
12219;BME280;6172;42.646;23.344;2023-02-07T12:33:05;95880.81;;;-1.81;64.31
12219;BME280;6172;42.646;23.344;2023-02-07T12:35:39;95891.28;;;-1.93;63.98
12219;BME280;6172;42.646;23.344;2023-02-07T12:38:24;95886.25;;;-1.95;63.58
12219;BME280;6172;42.646;23.344;2023-02-07T12:40:54;95877.19;;;-2.07;63.50
12219;BME280;6172;42.646;23.344;2023-02-07T12:43:27;95870.09;;;-2.12;64.34
12219;BME280;6172;42.646;23.344;2023-02-07T12:46:17;95875.03;;;-1.75;63.57
12219;BME280;6172;42.646;23.344;2023-02-07T12:49:19;95870.75;;;-1.45;60.88
12219;BME280;6172;42.646;23.344;2023-02-07T12:52:11;95871.34;;;-1.56;58.43
12219;BME280;6172;42.646;23.344;2023-02-07T12:54:54;95877.50;;;-1.47;58.91
12219;BME280;6172;42.646;23.344;2023-02-07T12:57:32;95863.81;;;-1.54;58.66
12219;BME280;6172;42.646;23.344;2023-02-07T13:00:04;95865.97;;;-1.17;58.00
12219;BME280;6172;42.646;23.344;2023-02-07T13:02:55;95877.13;;;-1.24;58.07
12219;BME280;6172;42.646;23.344;2023-02-07T13:08:42;95873.81;;;-1.21;58.75
12219;BME280;6172;42.646;23.344;2023-02-07T13:11:20;95873.19;;;-1.18;60.45
12219;BME280;6172;42.646;23.344;2023-02-07T13:14:01;95861.03;;;-1.32;63.81
12219;BME280;6172;42.646;23.344;2023-02-07T13:16:36;95861.91;;;-0.98;62.56
12219;BME280;6172;42.646;23.344;2023-02-07T13:19:12;95871.22;;;-0.95;61.15
12219;BME280;6172;42.646;23.344;2023-02-07T13:21:47;95864.47;;;-0.93;59.28
12219;BME280;6172;42.646;23.344;2023-02-07T13:24:22;95871.84;;;-0.98;60.03
12219;BME280;6172;42.646;23.344;2023-02-07T13:26:53;95875.78;;;-0.96;60.19
12219;BME280;6172;42.646;23.344;2023-02-07T13:29:21;95884.31;;;-1.41;61.58
12219;BME280;6172;42.646;23.344;2023-02-07T13:31:51;95862.47;;;-1.35;62.55
12219;BME280;6172;42.646;23.344;2023-02-07T13:34:24;95878.25;;;-1.16;62.31
12219;BME280;6172;42.646;23.344;2023-02-07T13:36:52;95877.38;;;-1.42;62.77
12219;BME280;6172;42.646;23.344;2023-02-07T13:39:27;95876.41;;;-1.46;64.16
12219;BME280;6172;42.646;23.344;2023-02-07T13:42:12;95873.41;;;-1.53;64.84
12219;BME280;6172;42.646;23.344;2023-02-07T13:44:46;95863.75;;;-1.72;66.20
12219;BME280;6172;42.646;23.344;2023-02-07T13:47:50;95859.94;;;-1.40;64.51
12219;BME280;6172;42.646;23.344;2023-02-07T13:50:34;95869.25;;;-1.68;65.25
12219;BME280;6172;42.646;23.344;2023-02-07T13:53:21;95866.25;;;-1.67;64.90
12219;BME280;6172;42.646;23.344;2023-02-07T13:55:54;95870.66;;;-1.71;65.04
12219;BME280;6172;42.646;23.344;2023-02-07T13:58:50;95871.88;;;-1.77;65.41
12219;BME280;6172;42.646;23.344;2023-02-07T14:01:34;95874.16;;;-1.92;65.74
12219;BME280;6172;42.646;23.344;2023-02-07T14:04:05;95872.28;;;-2.14;67.54
12219;BME280;6172;42.646;23.344;2023-02-07T14:06:41;95870.88;;;-2.11;65.52
12219;BME280;6172;42.646;23.344;2023-02-07T14:09:18;95863.06;;;-2.30;65.83
12219;BME280;6172;42.646;23.344;2023-02-07T14:11:56;95869.50;;;-2.31;69.19
12219;BME280;6172;42.646;23.344;2023-02-07T14:14:25;95866.44;;;-2.16;69.56
12219;BME280;6172;42.646;23.344;2023-02-07T14:16:56;95872.34;;;-2.05;68.10
12219;BME280;6172;42.646;23.344;2023-02-07T14:19:49;95867.16;;;-2.02;66.62
12219;BME280;6172;42.646;23.344;2023-02-07T14:22:21;95868.19;;;-1.89;65.06
12219;BME280;6172;42.646;23.344;2023-02-07T14:25:20;95868.75;;;-2.01;63.90
12219;BME280;6172;42.646;23.344;2023-02-07T14:28:06;95868.63;;;-1.65;64.42
12219;BME280;6172;42.646;23.344;2023-02-07T14:30:36;95866.13;;;-1.92;65.25
12219;BME280;6172;42.646;23.344;2023-02-07T14:33:20;95874.53;;;-1.77;63.92
12219;BME280;6172;42.646;23.344;2023-02-07T14:36:18;95868.25;;;-1.81;64.25